sensor_id;sensor_type;location;lat;lon;timestamp;P1;durP1;ratioP1;P2;durP2;ratioP2
30010;SDS011;16851;53.564;8.112;2023-10-08T00:03:19;9.18;;;2.13;;
30010;SDS011;16851;53.564;8.112;2023-10-08T00:08:24;5.43;;;1.70;;
30010;SDS011;16851;53.564;8.112;2023-10-08T00:13:29;8.05;;;1.65;;
30010;SDS011;16851;53.564;8.112;2023-10-08T00:18:31;7.47;;;1.98;;
30010;SDS011;16851;53.564;8.112;2023-10-08T00:23:36;11.63;;;2.15;;
30010;SDS011;16851;53.564;8.112;2023-10-08T00:28:44;11.15;;;1.90;;
30010;SDS011;16851;53.564;8.112;2023-10-08T00:33:49;10.45;;;1.90;;
30010;SDS011;16851;53.564;8.112;2023-10-08T00:38:53;10.90;;;1.65;;
30010;SDS011;16851;53.564;8.112;2023-10-08T00:44:01;5.47;;;1.50;;
30010;SDS011;16851;53.564;8.112;2023-10-08T00:49:10;8.35;;;1.35;;
30010;SDS011;16851;53.564;8.112;2023-10-08T00:54:27;10.18;;;1.60;;
30010;SDS011;16851;53.564;8.112;2023-10-08T00:59:34;10.70;;;1.33;;
30010;SDS011;16851;53.564;8.112;2023-10-08T01:04:46;10.27;;;1.60;;
30010;SDS011;16851;53.564;8.112;2023-10-08T01:09:48;10.55;;;1.58;;
30010;SDS011;16851;53.564;8.112;2023-10-08T01:14:57;11.63;;;1.65;;
30010;SDS011;16851;53.564;8.112;2023-10-08T01:20:06;8.75;;;1.50;;
30010;SDS011;16851;53.564;8.112;2023-10-08T01:25:22;8.40;;;2.08;;
30010;SDS011;16851;53.564;8.112;2023-10-08T01:30:26;16.52;;;2.03;;
30010;SDS011;16851;53.564;8.112;2023-10-08T01:35:33;11.45;;;2.80;;
30010;SDS011;16851;53.564;8.112;2023-10-08T01:40:36;9.07;;;1.92;;
30010;SDS011;16851;53.564;8.112;2023-10-08T01:45:38;11.27;;;2.25;;
30010;SDS011;16851;53.564;8.112;2023-10-08T01:50:49;10.10;;;2.10;;
30010;SDS011;16851;53.564;8.112;2023-10-08T01:55:54;11.23;;;2.05;;
30010;SDS011;16851;53.564;8.112;2023-10-08T02:00:56;11.48;;;1.70;;
30010;SDS011;16851;53.564;8.112;2023-10-08T02:06:01;6.72;;;1.77;;
30010;SDS011;16851;53.564;8.112;2023-10-08T02:11:07;13.13;;;2.33;;
30010;SDS011;16851;53.564;8.112;2023-10-08T02:16:10;10.07;;;2.25;;
30010;SDS011;16851;53.564;8.112;2023-10-08T02:21:12;10.63;;;1.98;;
30010;SDS011;16851;53.564;8.112;2023-10-08T02:26:15;8.05;;;1.70;;
30010;SDS011;16851;53.564;8.112;2023-10-08T02:31:20;13.35;;;2.00;;
30010;SDS011;16851;53.564;8.112;2023-10-08T02:36:22;7.03;;;1.35;;
30010;SDS011;16851;53.564;8.112;2023-10-08T02:41:26;11.95;;;1.95;;
30010;SDS011;16851;53.564;8.112;2023-10-08T02:46:33;13.25;;;1.75;;
30010;SDS011;16851;53.564;8.112;2023-10-08T02:51:39;10.10;;;1.83;;
30010;SDS011;16851;53.564;8.112;2023-10-08T02:56:43;8.73;;;2.15;;
30010;SDS011;16851;53.564;8.112;2023-10-08T03:01:48;9.90;;;1.50;;
30010;SDS011;16851;53.564;8.112;2023-10-08T03:06:57;8.43;;;1.55;;
30010;SDS011;16851;53.564;8.112;2023-10-08T03:12:02;11.20;;;1.98;;
30010;SDS011;16851;53.564;8.112;2023-10-08T03:17:10;12.50;;;1.65;;
30010;SDS011;16851;53.564;8.112;2023-10-08T03:22:20;9.48;;;1.80;;
30010;SDS011;16851;53.564;8.112;2023-10-08T03:27:21;7.97;;;1.40;;
30010;SDS011;16851;53.564;8.112;2023-10-08T03:32:27;8.40;;;1.30;;
30010;SDS011;16851;53.564;8.112;2023-10-08T03:37:36;16.08;;;2.00;;
30010;SDS011;16851;53.564;8.112;2023-10-08T03:42:51;11.05;;;2.10;;
30010;SDS011;16851;53.564;8.112;2023-10-08T03:47:57;9.27;;;1.77;;
30010;SDS011;16851;53.564;8.112;2023-10-08T03:53:13;9.05;;;1.63;;
30010;SDS011;16851;53.564;8.112;2023-10-08T03:58:18;9.38;;;1.60;;
30010;SDS011;16851;53.564;8.112;2023-10-08T04:03:46;11.25;;;2.05;;
30010;SDS011;16851;53.564;8.112;2023-10-08T04:08:53;10.98;;;2.55;;
30010;SDS011;16851;53.564;8.112;2023-10-08T04:14:13;9.70;;;2.03;;
30010;SDS011;16851;53.564;8.112;2023-10-08T04:19:21;5.93;;;1.55;;
30010;SDS011;16851;53.564;8.112;2023-10-08T04:24:31;5.10;;;1.48;;
30010;SDS011;16851;53.564;8.112;2023-10-08T04:29:38;15.07;;;2.65;;
30010;SDS011;16851;53.564;8.112;2023-10-08T04:34:42;13.85;;;1.70;;
30010;SDS011;16851;53.564;8.112;2023-10-08T04:39:48;6.97;;;1.58;;
30010;SDS011;16851;53.564;8.112;2023-10-08T04:45:01;7.10;;;1.58;;
30010;SDS011;16851;53.564;8.112;2023-10-08T04:50:07;11.60;;;2.08;;
30010;SDS011;16851;53.564;8.112;2023-10-08T04:55:16;10.15;;;1.80;;
30010;SDS011;16851;53.564;8.112;2023-10-08T05:00:22;8.73;;;1.65;;
30010;SDS011;16851;53.564;8.112;2023-10-08T05:05:42;10.95;;;2.00;;
30010;SDS011;16851;53.564;8.112;2023-10-08T05:11:08;8.52;;;1.70;;
30010;SDS011;16851;53.564;8.112;2023-10-08T05:16:34;8.50;;;2.30;;
30010;SDS011;16851;53.564;8.112;2023-10-08T05:21:46;5.55;;;1.58;;
30010;SDS011;16851;53.564;8.112;2023-10-08T05:27:07;10.52;;;1.67;;
30010;SDS011;16851;53.564;8.112;2023-10-08T05:32:37;7.95;;;1.65;;
30010;SDS011;16851;53.564;8.112;2023-10-08T05:37:48;9.70;;;1.77;;
30010;SDS011;16851;53.564;8.112;2023-10-08T05:42:56;6.22;;;1.80;;
30010;SDS011;16851;53.564;8.112;2023-10-08T05:48:15;9.43;;;1.85;;
30010;SDS011;16851;53.564;8.112;2023-10-08T05:53:29;8.18;;;1.90;;
30010;SDS011;16851;53.564;8.112;2023-10-08T05:58:45;8.98;;;2.00;;
30010;SDS011;16851;53.564;8.112;2023-10-08T06:04:01;12.23;;;2.13;;
30010;SDS011;16851;53.564;8.112;2023-10-08T06:09:23;9.95;;;1.70;;
30010;SDS011;16851;53.564;8.112;2023-10-08T06:14:36;18.50;;;2.17;;
30010;SDS011;16851;53.564;8.112;2023-10-08T06:20:04;16.92;;;2.38;;
30010;SDS011;16851;53.564;8.112;2023-10-08T06:25:11;10.27;;;1.85;;
30010;SDS011;16851;53.564;8.112;2023-10-08T06:30:26;9.60;;;2.33;;
30010;SDS011;16851;53.564;8.112;2023-10-08T06:35:39;9.35;;;2.05;;
30010;SDS011;16851;53.564;8.112;2023-10-08T06:40:46;12.70;;;2.38;;
30010;SDS011;16851;53.564;8.112;2023-10-08T06:45:50;10.00;;;2.20;;
30010;SDS011;16851;53.564;8.112;2023-10-08T06:51:00;9.05;;;2.10;;
30010;SDS011;16851;53.564;8.112;2023-10-08T06:56:15;7.82;;;2.22;;
30010;SDS011;16851;53.564;8.112;2023-10-08T07:01:17;9.82;;;1.70;;
30010;SDS011;16851;53.564;8.112;2023-10-08T07:06:48;12.38;;;2.55;;
30010;SDS011;16851;53.564;8.112;2023-10-08T07:11:55;12.95;;;2.42;;
30010;SDS011;16851;53.564;8.112;2023-10-08T07:17:09;12.40;;;2.53;;
30010;SDS011;16851;53.564;8.112;2023-10-08T07:22:18;10.75;;;2.15;;
30010;SDS011;16851;53.564;8.112;2023-10-08T07:27:24;9.82;;;2.28;;
30010;SDS011;16851;53.564;8.112;2023-10-08T07:32:34;8.18;;;1.77;;
30010;SDS011;16851;53.564;8.112;2023-10-08T07:37:38;11.05;;;1.95;;
30010;SDS011;16851;53.564;8.112;2023-10-08T07:42:41;9.07;;;2.22;;
30010;SDS011;16851;53.564;8.112;2023-10-08T07:47:53;7.00;;;2.03;;
30010;SDS011;16851;53.564;8.112;2023-10-08T07:52:57;9.73;;;1.80;;
30010;SDS011;16851;53.564;8.112;2023-10-08T07:58:01;12.43;;;1.90;;
30010;SDS011;16851;53.564;8.112;2023-10-08T08:03:07;8.80;;;1.83;;
30010;SDS011;16851;53.564;8.112;2023-10-08T08:08:09;9.55;;;1.90;;
30010;SDS011;16851;53.564;8.112;2023-10-08T08:13:16;6.60;;;1.42;;
30010;SDS011;16851;53.564;8.112;2023-10-08T08:18:24;8.07;;;1.38;;
30010;SDS011;16851;53.564;8.112;2023-10-08T08:23:27;7.30;;;1.52;;
30010;SDS011;16851;53.564;8.112;2023-10-08T08:28:30;8.45;;;1.50;;
30010;SDS011;16851;53.564;8.112;2023-10-08T08:33:32;11.15;;;1.90;;
30010;SDS011;16851;53.564;8.112;2023-10-08T08:38:53;11.27;;;1.80;;
30010;SDS011;16851;53.564;8.112;2023-10-08T08:43:55;6.97;;;1.77;;
30010;SDS011;16851;53.564;8.112;2023-10-08T08:49:04;5.50;;;1.27;;
30010;SDS011;16851;53.564;8.112;2023-10-08T08:54:09;5.65;;;1.58;;
30010;SDS011;16851;53.564;8.112;2023-10-08T08:59:11;3.58;;;1.20;;
30010;SDS011;16851;53.564;8.112;2023-10-08T09:04:14;4.00;;;1.13;;
30010;SDS011;16851;53.564;8.112;2023-10-08T09:09:18;4.78;;;1.30;;
30010;SDS011;16851;53.564;8.112;2023-10-08T09:14:27;3.88;;;1.45;;
30010;SDS011;16851;53.564;8.112;2023-10-08T09:19:36;3.92;;;1.25;;
30010;SDS011;16851;53.564;8.112;2023-10-08T09:24:39;7.43;;;1.25;;
30010;SDS011;16851;53.564;8.112;2023-10-08T09:29:42;7.50;;;1.40;;
30010;SDS011;16851;53.564;8.112;2023-10-08T09:34:44;6.15;;;1.30;;
30010;SDS011;16851;53.564;8.112;2023-10-08T09:39:46;4.57;;;1.05;;
30010;SDS011;16851;53.564;8.112;2023-10-08T09:44:53;7.20;;;1.48;;
30010;SDS011;16851;53.564;8.112;2023-10-08T09:50:04;3.03;;;0.85;;
30010;SDS011;16851;53.564;8.112;2023-10-08T09:55:13;5.20;;;1.30;;
30010;SDS011;16851;53.564;8.112;2023-10-08T10:00:17;4.55;;;0.98;;
30010;SDS011;16851;53.564;8.112;2023-10-08T10:05:33;8.77;;;1.33;;
30010;SDS011;16851;53.564;8.112;2023-10-08T10:10:38;5.78;;;1.20;;
30010;SDS011;16851;53.564;8.112;2023-10-08T10:15:51;6.18;;;0.85;;
30010;SDS011;16851;53.564;8.112;2023-10-08T10:20:56;8.50;;;1.23;;
30010;SDS011;16851;53.564;8.112;2023-10-08T10:26:03;3.67;;;0.93;;
30010;SDS011;16851;53.564;8.112;2023-10-08T10:31:18;5.60;;;1.10;;
30010;SDS011;16851;53.564;8.112;2023-10-08T10:36:25;3.85;;;1.35;;
30010;SDS011;16851;53.564;8.112;2023-10-08T10:41:27;3.70;;;1.10;;
30010;SDS011;16851;53.564;8.112;2023-10-08T10:46:30;2.45;;;0.88;;
30010;SDS011;16851;53.564;8.112;2023-10-08T10:51:33;4.00;;;1.30;;
30010;SDS011;16851;53.564;8.112;2023-10-08T10:56:40;4.35;;;0.93;;
30010;SDS011;16851;53.564;8.112;2023-10-08T11:01:50;6.53;;;1.02;;
30010;SDS011;16851;53.564;8.112;2023-10-08T11:07:08;4.40;;;0.90;;
30010;SDS011;16851;53.564;8.112;2023-10-08T11:12:13;2.55;;;0.85;;
30010;SDS011;16851;53.564;8.112;2023-10-08T11:17:24;3.20;;;1.05;;
30010;SDS011;16851;53.564;8.112;2023-10-08T11:22:46;1.95;;;0.98;;
30010;SDS011;16851;53.564;8.112;2023-10-08T11:27:48;3.10;;;1.15;;
30010;SDS011;16851;53.564;8.112;2023-10-08T11:32:50;5.00;;;1.52;;
30010;SDS011;16851;53.564;8.112;2023-10-08T11:37:52;3.33;;;0.90;;
30010;SDS011;16851;53.564;8.112;2023-10-08T11:43:04;4.47;;;1.10;;
30010;SDS011;16851;53.564;8.112;2023-10-08T11:48:06;3.13;;;1.17;;
30010;SDS011;16851;53.564;8.112;2023-10-08T11:53:14;2.50;;;0.75;;
30010;SDS011;16851;53.564;8.112;2023-10-08T11:58:19;6.43;;;1.00;;
30010;SDS011;16851;53.564;8.112;2023-10-08T12:03:21;3.45;;;0.98;;
30010;SDS011;16851;53.564;8.112;2023-10-08T12:08:28;2.95;;;1.00;;
30010;SDS011;16851;53.564;8.112;2023-10-08T12:13:30;2.22;;;0.82;;
30010;SDS011;16851;53.564;8.112;2023-10-08T12:18:37;3.33;;;1.00;;
30010;SDS011;16851;53.564;8.112;2023-10-08T12:23:42;2.72;;;0.90;;
30010;SDS011;16851;53.564;8.112;2023-10-08T12:28:50;2.65;;;0.75;;
30010;SDS011;16851;53.564;8.112;2023-10-08T12:33:55;2.83;;;0.90;;
30010;SDS011;16851;53.564;8.112;2023-10-08T12:39:01;3.25;;;0.90;;
30010;SDS011;16851;53.564;8.112;2023-10-08T12:44:16;3.13;;;1.05;;
30010;SDS011;16851;53.564;8.112;2023-10-08T12:49:23;3.25;;;0.93;;
30010;SDS011;16851;53.564;8.112;2023-10-08T12:54:25;8.55;;;1.00;;
30010;SDS011;16851;53.564;8.112;2023-10-08T12:59:30;4.18;;;0.90;;
30010;SDS011;16851;53.564;8.112;2023-10-08T13:04:36;2.88;;;0.88;;
30010;SDS011;16851;53.564;8.112;2023-10-08T13:09:44;3.78;;;0.98;;
30010;SDS011;16851;53.564;8.112;2023-10-08T13:14:46;3.35;;;0.80;;
30010;SDS011;16851;53.564;8.112;2023-10-08T13:19:47;3.08;;;0.90;;
30010;SDS011;16851;53.564;8.112;2023-10-08T13:24:53;2.25;;;0.80;;
30010;SDS011;16851;53.564;8.112;2023-10-08T13:29:57;4.43;;;1.00;;
30010;SDS011;16851;53.564;8.112;2023-10-08T13:35:02;4.72;;;0.90;;
30010;SDS011;16851;53.564;8.112;2023-10-08T13:40:09;5.63;;;1.35;;
30010;SDS011;16851;53.564;8.112;2023-10-08T13:45:11;3.28;;;1.05;;
30010;SDS011;16851;53.564;8.112;2023-10-08T13:50:27;3.88;;;1.20;;
30010;SDS011;16851;53.564;8.112;2023-10-08T13:55:32;4.43;;;1.10;;
30010;SDS011;16851;53.564;8.112;2023-10-08T14:00:34;2.85;;;1.00;;
30010;SDS011;16851;53.564;8.112;2023-10-08T14:05:40;4.28;;;1.10;;
30010;SDS011;16851;53.564;8.112;2023-10-08T14:10:45;3.63;;;0.98;;
30010;SDS011;16851;53.564;8.112;2023-10-08T14:15:50;5.28;;;1.05;;
30010;SDS011;16851;53.564;8.112;2023-10-08T14:20:57;4.00;;;1.10;;
30010;SDS011;16851;53.564;8.112;2023-10-08T14:25:59;5.07;;;1.20;;
30010;SDS011;16851;53.564;8.112;2023-10-08T14:31:10;3.42;;;0.90;;
30010;SDS011;16851;53.564;8.112;2023-10-08T14:36:24;3.58;;;1.38;;
30010;SDS011;16851;53.564;8.112;2023-10-08T14:41:47;4.28;;;1.10;;
30010;SDS011;16851;53.564;8.112;2023-10-08T14:47:07;3.95;;;1.00;;
30010;SDS011;16851;53.564;8.112;2023-10-08T14:52:09;2.42;;;0.90;;
30010;SDS011;16851;53.564;8.112;2023-10-08T14:57:13;2.33;;;0.90;;
30010;SDS011;16851;53.564;8.112;2023-10-08T15:02:18;2.20;;;0.93;;
30010;SDS011;16851;53.564;8.112;2023-10-08T15:07:20;1.98;;;1.00;;
30010;SDS011;16851;53.564;8.112;2023-10-08T15:12:27;4.97;;;1.20;;
30010;SDS011;16851;53.564;8.112;2023-10-08T15:17:29;5.70;;;1.13;;
30010;SDS011;16851;53.564;8.112;2023-10-08T15:22:36;6.03;;;1.20;;
30010;SDS011;16851;53.564;8.112;2023-10-08T15:27:41;3.38;;;1.20;;
30010;SDS011;16851;53.564;8.112;2023-10-08T15:32:46;3.05;;;0.93;;
30010;SDS011;16851;53.564;8.112;2023-10-08T15:37:52;2.78;;;1.10;;
30010;SDS011;16851;53.564;8.112;2023-10-08T15:42:56;3.05;;;0.90;;
30010;SDS011;16851;53.564;8.112;2023-10-08T15:48:00;3.47;;;1.25;;
30010;SDS011;16851;53.564;8.112;2023-10-08T15:53:03;5.93;;;2.13;;
30010;SDS011;16851;53.564;8.112;2023-10-08T15:58:05;4.72;;;1.30;;
30010;SDS011;16851;53.564;8.112;2023-10-08T16:03:08;4.63;;;0.98;;
30010;SDS011;16851;53.564;8.112;2023-10-08T16:08:12;4.30;;;1.20;;
30010;SDS011;16851;53.564;8.112;2023-10-08T16:13:13;2.90;;;1.40;;
30010;SDS011;16851;53.564;8.112;2023-10-08T16:18:17;3.90;;;1.30;;
30010;SDS011;16851;53.564;8.112;2023-10-08T16:23:20;4.70;;;2.60;;
30010;SDS011;16851;53.564;8.112;2023-10-08T16:28:24;4.20;;;1.75;;
30010;SDS011;16851;53.564;8.112;2023-10-08T16:33:30;6.13;;;3.17;;
30010;SDS011;16851;53.564;8.112;2023-10-08T16:38:33;11.45;;;6.95;;
30010;SDS011;16851;53.564;8.112;2023-10-08T16:43:35;16.83;;;6.45;;
30010;SDS011;16851;53.564;8.112;2023-10-08T16:48:38;8.98;;;5.47;;
30010;SDS011;16851;53.564;8.112;2023-10-08T16:53:40;12.18;;;3.85;;
30010;SDS011;16851;53.564;8.112;2023-10-08T16:58:43;5.15;;;2.33;;
30010;SDS011;16851;53.564;8.112;2023-10-08T17:03:45;3.67;;;1.52;;
30010;SDS011;16851;53.564;8.112;2023-10-08T17:08:49;5.72;;;1.38;;
30010;SDS011;16851;53.564;8.112;2023-10-08T17:13:54;3.53;;;1.38;;
30010;SDS011;16851;53.564;8.112;2023-10-08T17:18:56;4.55;;;1.20;;
30010;SDS011;16851;53.564;8.112;2023-10-08T17:23:59;5.68;;;2.05;;
30010;SDS011;16851;53.564;8.112;2023-10-08T17:29:04;6.13;;;1.50;;
30010;SDS011;16851;53.564;8.112;2023-10-08T17:34:12;3.67;;;1.30;;
30010;SDS011;16851;53.564;8.112;2023-10-08T17:39:21;5.20;;;1.30;;
30010;SDS011;16851;53.564;8.112;2023-10-08T17:44:23;4.40;;;1.38;;
30010;SDS011;16851;53.564;8.112;2023-10-08T17:49:26;4.65;;;2.13;;
30010;SDS011;16851;53.564;8.112;2023-10-08T17:54:31;7.45;;;1.55;;
30010;SDS011;16851;53.564;8.112;2023-10-08T17:59:38;4.63;;;1.33;;
30010;SDS011;16851;53.564;8.112;2023-10-08T18:04:40;3.38;;;1.30;;
30010;SDS011;16851;53.564;8.112;2023-10-08T18:09:43;5.18;;;1.45;;
30010;SDS011;16851;53.564;8.112;2023-10-08T18:14:46;5.00;;;1.60;;
30010;SDS011;16851;53.564;8.112;2023-10-08T18:19:49;2.60;;;1.08;;
30010;SDS011;16851;53.564;8.112;2023-10-08T18:24:51;4.95;;;1.38;;
30010;SDS011;16851;53.564;8.112;2023-10-08T18:29:53;5.82;;;2.03;;
30010;SDS011;16851;53.564;8.112;2023-10-08T18:34:56;3.58;;;1.17;;
30010;SDS011;16851;53.564;8.112;2023-10-08T18:40:00;3.97;;;1.23;;
30010;SDS011;16851;53.564;8.112;2023-10-08T18:45:14;5.15;;;1.27;;
30010;SDS011;16851;53.564;8.112;2023-10-08T18:50:18;6.20;;;1.50;;
30010;SDS011;16851;53.564;8.112;2023-10-08T18:55:24;6.00;;;1.65;;
30010;SDS011;16851;53.564;8.112;2023-10-08T19:00:43;5.10;;;1.27;;
30010;SDS011;16851;53.564;8.112;2023-10-08T19:05:45;3.85;;;1.45;;
30010;SDS011;16851;53.564;8.112;2023-10-08T19:10:47;3.55;;;1.33;;
30010;SDS011;16851;53.564;8.112;2023-10-08T19:15:49;4.38;;;1.42;;
30010;SDS011;16851;53.564;8.112;2023-10-08T19:20:52;5.13;;;1.60;;
30010;SDS011;16851;53.564;8.112;2023-10-08T19:25:54;6.88;;;1.67;;
30010;SDS011;16851;53.564;8.112;2023-10-08T19:30:57;4.35;;;1.15;;
30010;SDS011;16851;53.564;8.112;2023-10-08T19:36:03;5.13;;;1.50;;
30010;SDS011;16851;53.564;8.112;2023-10-08T19:41:15;4.75;;;1.40;;
30010;SDS011;16851;53.564;8.112;2023-10-08T19:46:18;5.30;;;1.35;;
30010;SDS011;16851;53.564;8.112;2023-10-08T19:51:27;4.65;;;1.20;;
30010;SDS011;16851;53.564;8.112;2023-10-08T19:56:29;3.03;;;1.33;;
30010;SDS011;16851;53.564;8.112;2023-10-08T20:01:40;12.27;;;1.92;;
30010;SDS011;16851;53.564;8.112;2023-10-08T20:06:42;3.40;;;1.27;;
30010;SDS011;16851;53.564;8.112;2023-10-08T20:11:45;4.78;;;1.58;;
30010;SDS011;16851;53.564;8.112;2023-10-08T20:16:49;7.05;;;1.83;;
30010;SDS011;16851;53.564;8.112;2023-10-08T20:21:55;5.03;;;1.35;;
30010;SDS011;16851;53.564;8.112;2023-10-08T20:26:57;6.60;;;1.45;;
30010;SDS011;16851;53.564;8.112;2023-10-08T20:32:02;5.50;;;1.25;;
30010;SDS011;16851;53.564;8.112;2023-10-08T20:37:11;4.75;;;1.63;;
30010;SDS011;16851;53.564;8.112;2023-10-08T20:42:16;7.45;;;1.58;;
30010;SDS011;16851;53.564;8.112;2023-10-08T20:47:18;10.60;;;1.83;;
30010;SDS011;16851;53.564;8.112;2023-10-08T20:52:22;5.20;;;1.30;;
30010;SDS011;16851;53.564;8.112;2023-10-08T20:57:25;4.32;;;1.30;;
30010;SDS011;16851;53.564;8.112;2023-10-08T21:02:27;5.85;;;1.27;;
30010;SDS011;16851;53.564;8.112;2023-10-08T21:07:30;5.85;;;1.60;;
30010;SDS011;16851;53.564;8.112;2023-10-08T21:12:32;3.63;;;1.50;;
30010;SDS011;16851;53.564;8.112;2023-10-08T21:17:34;5.47;;;1.73;;
30010;SDS011;16851;53.564;8.112;2023-10-08T21:22:38;5.40;;;1.95;;
30010;SDS011;16851;53.564;8.112;2023-10-08T21:27:47;6.28;;;1.88;;
30010;SDS011;16851;53.564;8.112;2023-10-08T21:32:52;8.88;;;1.60;;
30010;SDS011;16851;53.564;8.112;2023-10-08T21:37:57;6.82;;;1.55;;
30010;SDS011;16851;53.564;8.112;2023-10-08T21:42:58;5.25;;;1.58;;
30010;SDS011;16851;53.564;8.112;2023-10-08T21:48:01;8.27;;;1.98;;
30010;SDS011;16851;53.564;8.112;2023-10-08T21:53:04;5.10;;;1.58;;
30010;SDS011;16851;53.564;8.112;2023-10-08T21:58:05;6.20;;;1.77;;
30010;SDS011;16851;53.564;8.112;2023-10-08T22:03:10;6.65;;;1.83;;
30010;SDS011;16851;53.564;8.112;2023-10-08T22:08:17;8.07;;;2.05;;
30010;SDS011;16851;53.564;8.112;2023-10-08T22:13:24;10.60;;;1.88;;
30010;SDS011;16851;53.564;8.112;2023-10-08T22:18:30;8.52;;;2.13;;
30010;SDS011;16851;53.564;8.112;2023-10-08T22:23:43;6.38;;;1.73;;
30010;SDS011;16851;53.564;8.112;2023-10-08T22:28:46;6.72;;;2.05;;
30010;SDS011;16851;53.564;8.112;2023-10-08T22:33:52;9.52;;;2.13;;
30010;SDS011;16851;53.564;8.112;2023-10-08T22:38:59;17.70;;;3.00;;
30010;SDS011;16851;53.564;8.112;2023-10-08T22:44:04;6.40;;;2.00;;
30010;SDS011;16851;53.564;8.112;2023-10-08T22:49:07;9.13;;;2.40;;
30010;SDS011;16851;53.564;8.112;2023-10-08T22:54:18;10.07;;;2.60;;
30010;SDS011;16851;53.564;8.112;2023-10-08T22:59:25;8.15;;;2.20;;
30010;SDS011;16851;53.564;8.112;2023-10-08T23:04:31;7.70;;;2.55;;
30010;SDS011;16851;53.564;8.112;2023-10-08T23:09:35;9.77;;;2.15;;
30010;SDS011;16851;53.564;8.112;2023-10-08T23:14:41;11.07;;;2.13;;
30010;SDS011;16851;53.564;8.112;2023-10-08T23:19:47;7.35;;;2.28;;
30010;SDS011;16851;53.564;8.112;2023-10-08T23:24:53;12.25;;;2.70;;
30010;SDS011;16851;53.564;8.112;2023-10-08T23:29:57;9.25;;;2.40;;
30010;SDS011;16851;53.564;8.112;2023-10-08T23:35:00;11.20;;;2.67;;
30010;SDS011;16851;53.564;8.112;2023-10-08T23:40:05;8.90;;;2.50;;
30010;SDS011;16851;53.564;8.112;2023-10-08T23:45:20;6.85;;;2.13;;
30010;SDS011;16851;53.564;8.112;2023-10-08T23:50:28;8.90;;;2.75;;
30010;SDS011;16851;53.564;8.112;2023-10-08T23:55:33;9.63;;;3.22;;
